Time;durP1;ratioP1;P1;durP2;ratioP2;P2;SDS_P1;SDS_P2;PMS_P1;PMS_P2;Temp;Humidity;BMP_temperature;BMP_pressure;BME280_temperature;BME280_humidity;BME280_pressure;Samples;Min_cycle;Max_cycle;Signal;HPM_P1;HPM_P2
2023/06/19 00:02:24;;;;;;;9.88;6.47;;;;;;;;;;4953312;29;20071;-71
2023/06/19 00:04:49;;;;;;;9.10;6.13;;;;;;;;;;4956835;28;20027;-72
2023/06/19 00:07:14;;;;;;;8.75;6.22;;;;;;;;;;4951082;29;20110;-72
2023/06/19 00:09:39;;;;;;;9.52;5.88;;;;;;;;;;4953708;29;20030;-72
2023/06/19 00:12:05;;;;;;;8.25;5.63;;;;;;;;;;4954409;29;20497;-72
2023/06/19 00:14:30;;;;;;;8.65;5.65;;;;;;;;;;4954930;29;20109;-72
2023/06/19 00:16:56;;;;;;;8.05;5.50;;;;;;;;;;4958521;28;20067;-73
2023/06/19 00:19:21;;;;;;;9.45;5.22;;;;;;;;;;4953870;29;20063;-72
2023/06/19 00:21:46;;;;;;;7.63;4.60;;;;;;;;;;4954295;29;20473;-73
2023/06/19 00:24:12;;;;;;;11.05;5.40;;;;;;;;;;4937267;29;20103;-71
2023/06/19 00:26:37;;;;;;;9.98;6.20;;;;;;;;;;4955974;28;20458;-72
2023/06/19 00:29:02;;;;;;;9.38;5.70;;;;;;;;;;4952500;29;20106;-72
2023/06/19 00:31:28;;;;;;;9.15;5.82;;;;;;;;;;4954043;29;20474;-72
2023/06/19 00:33:53;;;;;;;8.40;5.55;;;;;;;;;;4954524;29;20032;-72
2023/06/19 00:36:23;;;;;;;9.32;5.03;;;;;;;;;;4952806;28;20070;-72
2023/06/19 00:38:48;;;;;;;7.53;5.45;;;;;;;;;;4955168;29;20493;-72
2023/06/19 00:41:15;;;;;;;7.35;5.13;;;;;;;;;;4950600;29;20038;-72
2023/06/19 00:43:40;;;;;;;8.27;4.90;;;;;;;;;;4954037;29;20398;-72
2023/06/19 00:46:05;;;;;;;8.18;5.28;;;;;;;;;;4950462;29;20030;-72
2023/06/19 00:48:31;;;;;;;6.47;4.88;;;;;;;;;;4953791;29;20019;-72
2023/06/19 00:50:57;;;;;;;8.95;5.00;;;;;;;;;;4954659;29;20023;-71
2023/06/19 00:53:22;;;;;;;7.68;4.93;;;;;;;;;;4953046;29;20485;-71
2023/06/19 00:55:48;;;;;;;7.25;4.88;;;;;;;;;;4954364;29;20027;-71
2023/06/19 00:58:15;;;;;;;7.72;4.90;;;;;;;;;;4953721;29;20031;-72
2023/06/19 01:03:42;;;;;;;7.57;4.80;;;;;;;;;;4945103;28;20491;-72
2023/06/19 01:06:10;;;;;;;6.80;4.65;;;;;;;;;;4953057;29;20030;-72
2023/06/19 01:08:44;;;;;;;7.90;4.90;;;;;;;;;;4950775;29;20035;-71
2023/06/19 01:11:11;;;;;;;9.05;4.97;;;;;;;;;;4954745;29;20019;-71
2023/06/19 01:13:58;;;;;;;7.75;4.93;;;;;;;;;;4953829;29;20445;-71
2023/06/19 01:16:24;;;;;;;7.40;5.05;;;;;;;;;;4942994;29;20039;-72
2023/06/19 01:18:50;;;;;;;7.78;4.88;;;;;;;;;;4953449;29;20026;-71
2023/06/19 01:21:16;;;;;;;6.72;4.90;;;;;;;;;;4954843;29;20015;-72
2023/06/19 01:23:42;;;;;;;11.10;5.57;;;;;;;;;;4953938;29;20500;-71
2023/06/19 01:26:08;;;;;;;9.35;5.00;;;;;;;;;;4954411;29;20012;-71
2023/06/19 01:28:34;;;;;;;6.88;4.53;;;;;;;;;;4950201;29;20433;-72
2023/06/19 01:31:00;;;;;;;7.32;4.82;;;;;;;;;;4954032;29;20031;-71
2023/06/19 01:33:28;;;;;;;7.97;4.72;;;;;;;;;;4952373;29;20023;-72
2023/06/19 01:35:55;;;;;;;8.45;4.90;;;;;;;;;;4953689;29;20075;-71
2023/06/19 01:38:21;;;;;;;7.97;5.07;;;;;;;;;;4953078;29;20027;-72
2023/06/19 01:40:48;;;;;;;7.13;4.82;;;;;;;;;;4954752;28;20091;-73
2023/06/19 01:43:14;;;;;;;7.40;4.78;;;;;;;;;;4954482;29;20478;-72
2023/06/19 01:45:39;;;;;;;9.32;4.53;;;;;;;;;;4951609;29;20027;-73
2023/06/19 01:48:05;;;;;;;8.00;5.28;;;;;;;;;;4949726;28;20031;-72
2023/06/19 01:50:30;;;;;;;8.68;4.72;;;;;;;;;;4952666;29;20054;-71
2023/06/19 01:52:55;;;;;;;8.85;4.78;;;;;;;;;;4952170;29;20046;-72
2023/06/19 01:55:21;;;;;;;6.63;4.88;;;;;;;;;;4952630;29;20019;-72
2023/06/19 01:57:46;;;;;;;7.07;5.05;;;;;;;;;;4953447;29;20058;-71
2023/06/19 02:00:12;;;;;;;9.50;5.32;;;;;;;;;;4952673;29;20027;-72
2023/06/19 02:02:37;;;;;;;9.27;5.68;;;;;;;;;;4954811;28;20518;-71
2023/06/19 02:05:03;;;;;;;6.95;5.07;;;;;;;;;;4954464;28;20038;-72
2023/06/19 02:07:28;;;;;;;7.82;5.10;;;;;;;;;;4932253;29;20051;-72
2023/06/19 02:09:53;;;;;;;8.35;5.40;;;;;;;;;;4952438;29;20031;-73
2023/06/19 02:12:18;;;;;;;7.13;5.20;;;;;;;;;;4954138;29;20038;-73
2023/06/19 02:14:44;;;;;;;9.82;5.28;;;;;;;;;;4954475;29;20020;-72
2023/06/19 02:17:09;;;;;;;8.45;5.57;;;;;;;;;;4957072;28;20385;-72
2023/06/19 02:19:34;;;;;;;8.73;5.60;;;;;;;;;;4954151;29;20023;-72
2023/06/19 02:22:00;;;;;;;8.68;5.40;;;;;;;;;;4954208;29;20046;-72
2023/06/19 02:24:25;;;;;;;10.10;5.95;;;;;;;;;;4952733;29;20444;-73
2023/06/19 02:26:50;;;;;;;8.90;5.57;;;;;;;;;;4953807;29;20029;-73
2023/06/19 02:29:15;;;;;;;8.02;5.55;;;;;;;;;;4951043;29;20365;-72
2023/06/19 02:31:42;;;;;;;9.40;5.78;;;;;;;;;;4952018;29;20481;-65
2023/06/19 02:34:07;;;;;;;9.48;6.10;;;;;;;;;;4953909;29;20023;-65
2023/06/19 02:36:32;;;;;;;10.55;5.85;;;;;;;;;;4954130;29;20034;-65
2023/06/19 02:38:58;;;;;;;9.57;6.85;;;;;;;;;;4953572;29;20481;-66
2023/06/19 02:41:23;;;;;;;9.82;5.95;;;;;;;;;;4951513;29;20019;-65
2023/06/19 02:43:49;;;;;;;11.65;6.60;;;;;;;;;;4953640;29;20082;-65
2023/06/19 02:46:15;;;;;;;11.50;7.18;;;;;;;;;;4953999;29;20509;-64
2023/06/19 02:48:40;;;;;;;12.73;7.00;;;;;;;;;;4953914;29;20046;-64
2023/06/19 02:51:05;;;;;;;12.45;7.30;;;;;;;;;;4952705;29;20485;-65
2023/06/19 02:53:30;;;;;;;11.43;6.93;;;;;;;;;;4953299;29;20038;-65
2023/06/19 02:55:56;;;;;;;13.30;7.28;;;;;;;;;;4951401;29;20023;-65
2023/06/19 02:58:21;;;;;;;11.98;7.30;;;;;;;;;;4952072;28;20054;-65
2023/06/19 03:00:46;;;;;;;10.98;7.85;;;;;;;;;;4939704;29;20015;-64
2023/06/19 03:03:12;;;;;;;14.20;7.15;;;;;;;;;;4957358;28;20122;-65
2023/06/19 03:05:37;;;;;;;10.73;6.85;;;;;;;;;;4957485;29;20034;-65
2023/06/19 03:08:03;;;;;;;10.02;7.18;;;;;;;;;;4957606;29;20019;-65
2023/06/19 03:10:28;;;;;;;10.20;6.53;;;;;;;;;;4957681;29;20393;-65
2023/06/19 03:12:53;;;;;;;9.32;6.30;;;;;;;;;;4955782;29;20393;-65
2023/06/19 03:15:19;;;;;;;11.00;6.68;;;;;;;;;;4955018;29;20023;-65
2023/06/19 03:17:44;;;;;;;10.23;6.32;;;;;;;;;;4957179;29;20022;-65
2023/06/19 03:20:11;;;;;;;10.32;6.55;;;;;;;;;;4957119;29;20023;-65
2023/06/19 03:22:38;;;;;;;10.48;6.40;;;;;;;;;;4957457;29;20047;-65
2023/06/19 03:25:04;;;;;;;9.40;6.90;;;;;;;;;;4957152;29;20022;-65
2023/06/19 03:27:30;;;;;;;12.60;6.80;;;;;;;;;;4957046;29;20016;-65
2023/06/19 03:29:55;;;;;;;12.10;6.70;;;;;;;;;;4956710;29;20070;-66
2023/06/19 03:32:20;;;;;;;10.75;6.68;;;;;;;;;;4955858;29;20023;-66
2023/06/19 03:34:46;;;;;;;11.20;6.97;;;;;;;;;;4957041;29;20031;-65
2023/06/19 03:37:12;;;;;;;11.27;6.40;;;;;;;;;;4957313;29;20050;-66
2023/06/19 03:39:37;;;;;;;14.18;7.03;;;;;;;;;;4959972;28;20046;-66
2023/06/19 03:42:03;;;;;;;9.00;6.50;;;;;;;;;;4956754;29;20027;-65
2023/06/19 03:44:28;;;;;;;9.80;6.35;;;;;;;;;;4950806;29;20078;-65
2023/06/19 03:46:53;;;;;;;12.27;6.85;;;;;;;;;;4953099;29;20019;-66
2023/06/19 03:49:19;;;;;;;10.30;6.68;;;;;;;;;;4956247;29;20081;-65
2023/06/19 03:51:44;;;;;;;12.63;6.65;;;;;;;;;;4956722;29;20488;-65
2023/06/19 03:54:09;;;;;;;15.30;6.50;;;;;;;;;;4956897;29;20474;-65
2023/06/19 03:56:34;;;;;;;12.55;6.57;;;;;;;;;;4956679;29;20015;-65
2023/06/19 03:59:00;;;;;;;10.90;6.53;;;;;;;;;;4956810;29;20449;-65
2023/06/19 04:01:26;;;;;;;12.88;6.70;;;;;;;;;;4956535;29;20094;-65
2023/06/19 04:03:51;;;;;;;11.35;6.85;;;;;;;;;;4948380;28;20050;-65
2023/06/19 04:06:16;;;;;;;10.38;6.40;;;;;;;;;;4958892;28;20023;-65
2023/06/19 04:08:41;;;;;;;14.13;6.13;;;;;;;;;;4959411;28;20023;-66
2023/06/19 04:11:07;;;;;;;11.07;6.30;;;;;;;;;;4968905;28;20086;-65
2023/06/19 04:13:32;;;;;;;13.30;6.65;;;;;;;;;;4967583;28;20055;-65
2023/06/19 04:15:57;;;;;;;10.02;6.40;;;;;;;;;;4957211;29;20024;-65
2023/06/19 04:18:23;;;;;;;9.27;6.38;;;;;;;;;;4939212;29;20023;-65
2023/06/19 04:20:48;;;;;;;10.68;6.75;;;;;;;;;;4956364;29;20051;-65
2023/06/19 04:23:13;;;;;;;9.18;6.22;;;;;;;;;;4957110;28;20393;-66
2023/06/19 04:25:38;;;;;;;9.48;6.20;;;;;;;;;;4957640;29;20070;-65
2023/06/19 04:28:04;;;;;;;10.02;6.00;;;;;;;;;;4957342;29;20378;-65
2023/06/19 04:30:30;;;;;;;13.38;6.38;;;;;;;;;;4956853;29;20030;-66
2023/06/19 04:32:56;;;;;;;14.73;6.88;;;;;;;;;;4954284;29;20023;-65
2023/06/19 04:35:23;;;;;;;12.65;6.53;;;;;;;;;;4956361;29;20162;-65
2023/06/19 04:37:48;;;;;;;11.15;6.30;;;;;;;;;;4956702;29;20020;-66
2023/06/19 04:40:14;;;;;;;10.65;6.10;;;;;;;;;;4953012;29;20042;-66
2023/06/19 04:42:39;;;;;;;12.25;6.07;;;;;;;;;;4956185;29;20099;-65
2023/06/19 04:45:07;;;;;;;12.63;5.85;;;;;;;;;;4957189;29;20103;-65
2023/06/19 04:47:32;;;;;;;13.05;6.18;;;;;;;;;;4956136;29;20359;-65
2023/06/19 04:49:58;;;;;;;9.98;6.32;;;;;;;;;;4956523;29;20066;-65
2023/06/19 04:52:23;;;;;;;11.40;5.75;;;;;;;;;;4955258;29;20031;-65
2023/06/19 04:54:48;;;;;;;8.90;6.13;;;;;;;;;;4952312;29;20055;-65
2023/06/19 04:57:14;;;;;;;12.05;6.20;;;;;;;;;;4950596;29;20027;-65
2023/06/19 04:59:39;;;;;;;10.45;6.05;;;;;;;;;;4951395;29;20039;-65
2023/06/19 05:02:04;;;;;;;12.70;6.22;;;;;;;;;;4954082;28;20122;-64
2023/06/19 05:04:32;;;;;;;11.02;6.00;;;;;;;;;;4953470;29;20031;-65
2023/06/19 05:06:57;;;;;;;8.20;6.35;;;;;;;;;;4954145;29;20058;-66
2023/06/19 05:09:23;;;;;;;9.45;6.07;;;;;;;;;;4955030;29;20051;-66
2023/06/19 05:11:48;;;;;;;8.20;5.78;;;;;;;;;;4952880;29;20027;-66
2023/06/19 05:14:14;;;;;;;8.13;5.50;;;;;;;;;;4953099;29;20027;-67
2023/06/19 05:16:39;;;;;;;11.82;6.22;;;;;;;;;;4952718;29;20027;-68
2023/06/19 05:19:05;;;;;;;7.75;5.63;;;;;;;;;;4951450;29;20034;-68
2023/06/19 05:21:30;;;;;;;11.18;5.75;;;;;;;;;;4955137;28;20482;-68
2023/06/19 05:23:56;;;;;;;8.93;5.57;;;;;;;;;;4950920;29;20121;-69
2023/06/19 05:26:22;;;;;;;8.05;5.75;;;;;;;;;;4951948;29;20019;-68
2023/06/19 05:28:47;;;;;;;10.93;6.03;;;;;;;;;;4952413;29;20417;-69
2023/06/19 05:31:12;;;;;;;10.23;5.75;;;;;;;;;;4954413;29;20027;-68
2023/06/19 05:33:38;;;;;;;8.93;5.85;;;;;;;;;;4952855;29;20041;-69
2023/06/19 05:36:03;;;;;;;9.10;5.80;;;;;;;;;;4950797;29;20110;-68
2023/06/19 05:38:30;;;;;;;10.57;6.15;;;;;;;;;;4947153;29;20061;-69
2023/06/19 05:40:55;;;;;;;14.05;5.88;;;;;;;;;;4950575;29;20038;-69
2023/06/19 05:43:21;;;;;;;9.90;5.88;;;;;;;;;;4952401;29;20023;-69
2023/06/19 05:45:47;;;;;;;8.77;5.95;;;;;;;;;;4949400;28;20040;-69
2023/06/19 05:48:12;;;;;;;9.77;6.22;;;;;;;;;;4953391;29;20023;-68
2023/06/19 05:50:37;;;;;;;9.88;5.95;;;;;;;;;;4951266;29;20031;-67
2023/06/19 05:53:03;;;;;;;11.25;5.60;;;;;;;;;;4955059;29;20031;-68
2023/06/19 05:55:28;;;;;;;11.88;6.10;;;;;;;;;;4956062;29;20023;-68
2023/06/19 05:57:54;;;;;;;8.73;5.60;;;;;;;;;;4955951;29;20068;-68
2023/06/19 06:00:20;;;;;;;11.00;5.88;;;;;;;;;;4955822;29;20098;-68
2023/06/19 06:02:45;;;;;;;11.18;5.88;;;;;;;;;;4959594;28;20046;-68
2023/06/19 06:05:11;;;;;;;9.70;5.97;;;;;;;;;;4954683;29;20030;-68
2023/06/19 06:07:36;;;;;;;11.82;5.50;;;;;;;;;;4955815;29;20027;-68
2023/06/19 06:10:01;;;;;;;7.45;5.65;;;;;;;;;;4955822;29;20458;-67
2023/06/19 06:12:27;;;;;;;10.70;5.90;;;;;;;;;;4955226;29;20023;-67
2023/06/19 06:14:52;;;;;;;8.95;5.95;;;;;;;;;;4955615;29;20450;-67
2023/06/19 06:17:17;;;;;;;9.20;5.75;;;;;;;;;;4955490;29;20015;-67
2023/06/19 06:19:43;;;;;;;10.27;5.55;;;;;;;;;;4953532;29;20027;-68
2023/06/19 06:22:08;;;;;;;9.57;5.20;;;;;;;;;;4955603;29;20023;-68
2023/06/19 06:24:33;;;;;;;8.43;4.93;;;;;;;;;;4953705;29;20470;-67
2023/06/19 06:26:58;;;;;;;6.93;5.10;;;;;;;;;;4952283;28;20031;-67
2023/06/19 06:29:24;;;;;;;8.80;4.93;;;;;;;;;;4955487;28;20098;-67
2023/06/19 06:31:52;;;;;;;7.20;4.80;;;;;;;;;;4955499;29;20469;-68
2023/06/19 06:34:18;;;;;;;6.10;4.13;;;;;;;;;;4952578;28;20019;-67
2023/06/19 06:36:43;;;;;;;6.43;4.60;;;;;;;;;;4955584;29;20118;-66
2023/06/19 06:39:08;;;;;;;7.47;4.30;;;;;;;;;;4955348;29;20106;-67
2023/06/19 06:41:33;;;;;;;6.63;4.43;;;;;;;;;;4955083;29;20027;-67
2023/06/19 06:43:59;;;;;;;6.63;4.10;;;;;;;;;;4954276;29;20015;-67
2023/06/19 06:46:24;;;;;;;7.00;3.90;;;;;;;;;;4955315;29;20023;-67
2023/06/19 06:48:50;;;;;;;5.85;3.55;;;;;;;;;;4954487;29;20481;-66
2023/06/19 06:51:15;;;;;;;7.03;3.78;;;;;;;;;;4955380;29;20053;-66
2023/06/19 06:53:40;;;;;;;5.90;3.35;;;;;;;;;;4954638;29;20516;-67
2023/06/19 06:56:05;;;;;;;7.47;3.65;;;;;;;;;;4952168;29;20059;-66
2023/06/19 06:58:31;;;;;;;5.93;3.80;;;;;;;;;;4954937;29;20078;-68
2023/06/19 07:00:56;;;;;;;5.55;3.45;;;;;;;;;;4955172;29;20023;-67
2023/06/19 07:03:21;;;;;;;5.75;3.45;;;;;;;;;;4964781;28;20053;-66
2023/06/19 07:05:50;;;;;;;7.22;3.90;;;;;;;;;;4953899;29;20077;-67
2023/06/19 07:08:15;;;;;;;5.82;3.70;;;;;;;;;;4955076;29;20027;-67
2023/06/19 07:10:40;;;;;;;7.03;3.70;;;;;;;;;;4955044;29;20346;-67
2023/06/19 07:13:05;;;;;;;8.25;3.85;;;;;;;;;;4955019;29;20035;-67
2023/06/19 07:15:31;;;;;;;8.95;3.40;;;;;;;;;;4954075;29;20023;-67
2023/06/19 07:17:56;;;;;;;6.82;3.45;;;;;;;;;;4952895;29;20054;-66
2023/06/19 07:20:22;;;;;;;7.30;3.53;;;;;;;;;;4948676;29;20490;-66
2023/06/19 07:22:47;;;;;;;5.72;3.28;;;;;;;;;;4953921;29;20023;-65
2023/06/19 07:25:12;;;;;;;6.10;3.30;;;;;;;;;;4953189;29;20086;-66
2023/06/19 07:27:39;;;;;;;5.68;3.50;;;;;;;;;;4954648;29;20023;-65
2023/06/19 07:30:05;;;;;;;8.20;3.30;;;;;;;;;;4945050;29;20043;-66
2023/06/19 07:32:30;;;;;;;6.47;3.90;;;;;;;;;;4946390;29;20065;-66
2023/06/19 07:34:56;;;;;;;8.63;4.00;;;;;;;;;;4954180;29;20074;-65
2023/06/19 07:37:21;;;;;;;7.63;4.20;;;;;;;;;;4943636;29;20367;-65
2023/06/19 07:39:48;;;;;;;8.52;4.20;;;;;;;;;;4945599;29;20023;-65
2023/06/19 07:42:13;;;;;;;6.88;3.92;;;;;;;;;;4967111;28;20385;-65
2023/06/19 07:44:38;;;;;;;6.20;3.88;;;;;;;;;;4970118;28;20099;-65
2023/06/19 07:47:04;;;;;;;7.30;3.90;;;;;;;;;;4958281;29;20023;-65
2023/06/19 07:49:29;;;;;;;6.88;3.92;;;;;;;;;;4953651;29;20110;-66
2023/06/19 07:51:54;;;;;;;5.25;3.30;;;;;;;;;;4958459;29;20031;-66
2023/06/19 07:54:20;;;;;;;8.07;3.90;;;;;;;;;;4957066;28;20038;-66
2023/06/19 07:56:45;;;;;;;6.25;3.40;;;;;;;;;;4958189;29;20051;-66
2023/06/19 07:59:11;;;;;;;7.38;3.60;;;;;;;;;;4958879;28;20030;-66
2023/06/19 08:01:36;;;;;;;5.43;3.00;;;;;;;;;;4976771;28;20023;-66
2023/06/19 08:04:01;;;;;;;5.30;3.28;;;;;;;;;;4969134;28;20082;-66
2023/06/19 08:06:26;;;;;;;6.72;3.15;;;;;;;;;;4957929;29;20030;-66
2023/06/19 08:08:52;;;;;;;7.50;3.38;;;;;;;;;;4957838;29;20050;-66
2023/06/19 08:11:17;;;;;;;20.13;4.30;;;;;;;;;;4957975;29;20110;-66
2023/06/19 08:13:42;;;;;;;6.45;3.17;;;;;;;;;;4956434;29;20504;-65
2023/06/19 08:16:10;;;;;;;4.38;2.53;;;;;;;;;;4956471;29;20031;-67
2023/06/19 08:18:35;;;;;;;16.83;3.17;;;;;;;;;;4956063;29;20035;-66
2023/06/19 08:21:00;;;;;;;6.03;2.30;;;;;;;;;;4955798;29;20054;-66
2023/06/19 08:23:26;;;;;;;5.30;2.20;;;;;;;;;;4972561;28;20030;-67
2023/06/19 08:25:51;;;;;;;5.35;2.70;;;;;;;;;;4963513;28;20382;-66
2023/06/19 08:28:17;;;;;;;4.78;2.72;;;;;;;;;;4956997;29;20481;-68
2023/06/19 08:30:44;;;;;;;4.30;2.17;;;;;;;;;;4957417;29;20038;-66
2023/06/19 08:33:10;;;;;;;4.80;2.40;;;;;;;;;;4957593;29;20127;-67
2023/06/19 08:35:35;;;;;;;8.35;2.42;;;;;;;;;;4955896;29;20494;-67
2023/06/19 08:38:00;;;;;;;6.35;2.40;;;;;;;;;;4956772;29;20023;-66
2023/06/19 08:40:25;;;;;;;4.30;2.40;;;;;;;;;;4957652;29;20034;-66
2023/06/19 08:42:52;;;;;;;4.10;2.58;;;;;;;;;;4974672;28;20118;-66
2023/06/19 08:45:20;;;;;;;6.75;2.85;;;;;;;;;;4976520;28;20145;-64
2023/06/19 08:47:46;;;;;;;5.10;2.25;;;;;;;;;;4971167;28;20473;-65
2023/06/19 08:50:11;;;;;;;5.30;2.20;;;;;;;;;;4955500;29;20024;-66
2023/06/19 08:52:37;;;;;;;11.65;2.65;;;;;;;;;;4955481;29;20547;-65
2023/06/19 08:55:02;;;;;;;4.95;1.98;;;;;;;;;;4956282;29;20037;-66
2023/06/19 08:57:37;;;;;;;3.60;2.08;;;;;;;;;;4954460;29;20377;-65
2023/06/19 09:00:05;;;;;;;4.97;2.40;;;;;;;;;;4957046;29;20028;-65
2023/06/19 09:02:40;;;;;;;5.75;2.17;;;;;;;;;;4955345;29;20035;-66
2023/06/19 09:05:12;;;;;;;3.67;1.80;;;;;;;;;;4954996;29;20015;-68
2023/06/19 09:07:38;;;;;;;7.05;1.88;;;;;;;;;;4955784;29;20111;-66
2023/06/19 09:10:17;;;;;;;9.43;2.00;;;;;;;;;;4956920;29;20023;-65
2023/06/19 09:12:43;;;;;;;4.97;2.20;;;;;;;;;;4955278;29;20055;-66
2023/06/19 09:15:13;;;;;;;5.82;2.00;;;;;;;;;;4955773;29;20035;-65
2023/06/19 09:17:38;;;;;;;3.67;1.95;;;;;;;;;;4937192;29;20036;-66
2023/06/19 09:20:05;;;;;;;5.05;2.20;;;;;;;;;;4938934;29;20078;-65
2023/06/19 09:22:30;;;;;;;4.35;2.15;;;;;;;;;;4956502;29;20042;-65
2023/06/19 09:24:59;;;;;;;4.78;2.30;;;;;;;;;;4956505;29;20057;-65
2023/06/19 09:27:25;;;;;;;3.97;2.35;;;;;;;;;;4949411;29;20441;-66
2023/06/19 09:29:50;;;;;;;3.72;1.83;;;;;;;;;;4947155;29;20027;-66
2023/06/19 09:32:20;;;;;;;5.60;2.10;;;;;;;;;;4939211;29;20024;-65
2023/06/19 09:34:45;;;;;;;3.42;1.90;;;;;;;;;;4937332;29;20394;-66
2023/06/19 09:37:11;;;;;;;4.25;1.85;;;;;;;;;;4953177;29;20027;-65
2023/06/19 09:39:39;;;;;;;9.35;2.13;;;;;;;;;;4956232;29;20027;-65
2023/06/19 09:42:08;;;;;;;5.18;2.17;;;;;;;;;;4967348;28;20377;-65
2023/06/19 09:44:38;;;;;;;4.10;2.10;;;;;;;;;;4975335;28;20019;-66
2023/06/19 09:47:06;;;;;;;3.85;2.13;;;;;;;;;;4957273;28;20027;-66
2023/06/19 09:49:32;;;;;;;5.20;2.50;;;;;;;;;;4956049;29;20042;-65
2023/06/19 09:51:57;;;;;;;4.35;2.22;;;;;;;;;;4953690;29;20015;-66
2023/06/19 09:54:23;;;;;;;3.95;2.20;;;;;;;;;;4954205;28;20035;-65
2023/06/19 09:56:51;;;;;;;4.55;2.33;;;;;;;;;;4954829;29;20027;-64
2023/06/19 09:59:17;;;;;;;4.07;2.30;;;;;;;;;;4938430;29;20034;-64
2023/06/19 10:01:43;;;;;;;5.15;2.20;;;;;;;;;;4954441;29;20375;-65
2023/06/19 10:04:10;;;;;;;7.57;2.50;;;;;;;;;;4955382;29;20069;-65
2023/06/19 10:06:45;;;;;;;3.95;2.40;;;;;;;;;;4960680;28;20023;-65
2023/06/19 10:09:11;;;;;;;4.10;2.50;;;;;;;;;;4974809;28;20034;-65
2023/06/19 10:11:51;;;;;;;5.50;2.55;;;;;;;;;;4958331;28;20389;-65
2023/06/19 10:14:18;;;;;;;5.22;2.50;;;;;;;;;;4947123;29;20094;-64
2023/06/19 10:16:43;;;;;;;7.63;2.65;;;;;;;;;;4955413;29;20019;-64
2023/06/19 10:19:13;;;;;;;5.13;2.60;;;;;;;;;;4955469;29;20074;-64
2023/06/19 10:21:45;;;;;;;4.85;2.63;;;;;;;;;;4953452;29;20015;-65
2023/06/19 10:24:14;;;;;;;4.15;2.75;;;;;;;;;;4955537;29;20512;-65
2023/06/19 10:26:39;;;;;;;5.13;2.90;;;;;;;;;;4952959;29;20024;-64
2023/06/19 10:29:15;;;;;;;4.50;2.80;;;;;;;;;;4953816;29;20099;-65
2023/06/19 10:31:40;;;;;;;4.85;2.70;;;;;;;;;;4968728;28;20023;-64
2023/06/19 10:34:05;;;;;;;4.22;2.50;;;;;;;;;;4971922;28;20470;-64
2023/06/19 10:36:31;;;;;;;4.57;3.08;;;;;;;;;;4952615;29;20023;-65
2023/06/19 10:38:56;;;;;;;4.95;3.00;;;;;;;;;;4955298;29;20031;-65
2023/06/19 10:41:23;;;;;;;6.00;3.03;;;;;;;;;;4950863;28;20050;-65
2023/06/19 10:44:03;;;;;;;4.38;2.95;;;;;;;;;;4953762;29;20032;-63
2023/06/19 10:46:32;;;;;;;7.43;3.03;;;;;;;;;;4955017;29;20023;-65
2023/06/19 10:49:04;;;;;;;6.13;3.17;;;;;;;;;;4953179;29;20035;-65
2023/06/19 10:51:29;;;;;;;6.47;3.10;;;;;;;;;;4953367;29;20027;-64
2023/06/19 10:53:55;;;;;;;4.88;3.17;;;;;;;;;;4954595;29;20500;-65
2023/06/19 10:56:21;;;;;;;5.65;3.25;;;;;;;;;;4954275;29;20034;-64
2023/06/19 10:58:46;;;;;;;8.30;3.40;;;;;;;;;;4951767;29;20035;-65
2023/06/19 11:01:11;;;;;;;4.82;2.70;;;;;;;;;;4955099;29;20415;-64
2023/06/19 11:03:37;;;;;;;4.22;2.72;;;;;;;;;;4954637;29;20043;-65
2023/06/19 11:06:02;;;;;;;4.70;3.00;;;;;;;;;;4953880;29;20023;-65
2023/06/19 11:08:28;;;;;;;6.03;3.22;;;;;;;;;;4952424;29;20027;-65
2023/06/19 11:10:55;;;;;;;4.97;3.13;;;;;;;;;;4951354;29;20030;-65
2023/06/19 11:13:20;;;;;;;4.95;3.08;;;;;;;;;;4955111;29;20028;-64
2023/06/19 11:15:47;;;;;;;4.78;2.90;;;;;;;;;;4952038;29;20122;-63
2023/06/19 11:18:14;;;;;;;6.15;3.45;;;;;;;;;;4952659;29;20027;-66
2023/06/19 11:20:48;;;;;;;4.72;3.13;;;;;;;;;;4954743;28;20046;-65
2023/06/19 11:23:13;;;;;;;6.10;3.17;;;;;;;;;;4952705;29;20019;-65
2023/06/19 11:25:40;;;;;;;5.18;2.95;;;;;;;;;;4954314;29;20100;-65
2023/06/19 11:28:10;;;;;;;6.28;2.80;;;;;;;;;;4958609;29;20496;-65
2023/06/19 11:30:36;;;;;;;4.63;2.70;;;;;;;;;;4957934;29;20019;-65
2023/06/19 11:33:01;;;;;;;4.53;2.60;;;;;;;;;;4958367;29;20502;-64
2023/06/19 11:35:33;;;;;;;5.47;3.20;;;;;;;;;;4954549;29;20031;-65
2023/06/19 11:37:59;;;;;;;5.10;2.90;;;;;;;;;;4957693;29;20482;-64
2023/06/19 11:40:24;;;;;;;6.80;3.17;;;;;;;;;;4949481;29;20028;-63
2023/06/19 11:42:53;;;;;;;5.07;3.20;;;;;;;;;;4973445;28;20046;-65
2023/06/19 11:45:18;;;;;;;5.85;3.67;;;;;;;;;;4964248;28;20023;-63
2023/06/19 11:47:45;;;;;;;6.80;3.53;;;;;;;;;;4955235;29;20019;-64
2023/06/19 11:50:10;;;;;;;5.47;3.40;;;;;;;;;;4957933;29;20024;-64
2023/06/19 11:52:36;;;;;;;7.05;3.60;;;;;;;;;;4957337;29;20095;-64
2023/06/19 11:55:01;;;;;;;5.57;3.20;;;;;;;;;;4953624;28;20039;-65
2023/06/19 11:57:26;;;;;;;7.53;3.35;;;;;;;;;;4957830;29;20478;-64
2023/06/19 11:59:52;;;;;;;5.35;3.33;;;;;;;;;;4972131;28;20050;-64
2023/06/19 12:02:17;;;;;;;7.38;3.70;;;;;;;;;;4977159;28;20350;-65
2023/06/19 12:04:42;;;;;;;7.00;3.80;;;;;;;;;;4973415;28;20142;-65
2023/06/19 12:07:08;;;;;;;7.43;4.32;;;;;;;;;;4956834;29;20042;-65
2023/06/19 12:09:34;;;;;;;5.90;3.92;;;;;;;;;;4956841;29;20027;-65
2023/06/19 12:12:00;;;;;;;5.63;3.88;;;;;;;;;;4956960;29;20047;-64
2023/06/19 12:14:26;;;;;;;7.07;3.55;;;;;;;;;;4954970;29;20030;-65
2023/06/19 12:16:51;;;;;;;9.18;3.67;;;;;;;;;;4956206;29;20448;-64
2023/06/19 12:19:17;;;;;;;6.10;3.80;;;;;;;;;;4957664;29;20404;-64
2023/06/19 12:21:42;;;;;;;7.57;3.72;;;;;;;;;;4956590;29;20023;-65
2023/06/19 12:24:07;;;;;;;6.60;3.95;;;;;;;;;;4957479;29;20024;-64
2023/06/19 12:26:36;;;;;;;6.00;3.42;;;;;;;;;;4953960;28;20019;-64
2023/06/19 12:29:05;;;;;;;5.82;3.75;;;;;;;;;;4936961;29;20389;-64
2023/06/19 12:31:31;;;;;;;5.32;3.25;;;;;;;;;;4936846;29;20032;-63
2023/06/19 12:33:57;;;;;;;4.63;2.83;;;;;;;;;;4938179;29;20050;-65
2023/06/19 12:36:22;;;;;;;5.65;3.10;;;;;;;;;;4951380;29;20029;-65
2023/06/19 12:38:48;;;;;;;6.07;3.30;;;;;;;;;;4957351;29;20038;-64
2023/06/19 12:41:14;;;;;;;5.65;3.05;;;;;;;;;;4960434;28;20034;-65
2023/06/19 12:43:39;;;;;;;9.35;3.20;;;;;;;;;;4959003;28;20023;-64
2023/06/19 12:46:04;;;;;;;7.47;3.47;;;;;;;;;;4960156;28;20023;-63
2023/06/19 12:48:30;;;;;;;6.20;3.28;;;;;;;;;;4957029;29;20031;-64
2023/06/19 12:50:55;;;;;;;6.70;3.40;;;;;;;;;;4954702;29;20030;-65
2023/06/19 12:53:26;;;;;;;5.72;3.42;;;;;;;;;;4956881;29;20385;-64
2023/06/19 12:55:51;;;;;;;4.55;3.40;;;;;;;;;;4954310;29;20019;-64
2023/06/19 12:58:16;;;;;;;5.63;3.45;;;;;;;;;;4954365;29;20393;-64
2023/06/19 13:00:42;;;;;;;5.40;3.70;;;;;;;;;;4956672;29;20030;-64
2023/06/19 13:03:07;;;;;;;4.95;3.20;;;;;;;;;;4956718;29;20050;-65
2023/06/19 13:05:32;;;;;;;4.70;3.20;;;;;;;;;;4954443;29;20389;-63
2023/06/19 13:07:57;;;;;;;5.55;2.92;;;;;;;;;;4954168;29;20023;-63
2023/06/19 13:10:23;;;;;;;6.18;3.22;;;;;;;;;;4955674;29;20110;-63
2023/06/19 13:12:48;;;;;;;4.93;2.80;;;;;;;;;;4953734;29;20098;-65
2023/06/19 13:15:13;;;;;;;5.15;2.90;;;;;;;;;;4956575;29;20092;-63
2023/06/19 13:17:38;;;;;;;4.30;2.70;;;;;;;;;;4956617;29;20031;-64
2023/06/19 13:20:04;;;;;;;5.90;3.50;;;;;;;;;;4955927;29;20073;-63
2023/06/19 13:22:30;;;;;;;5.57;2.90;;;;;;;;;;4955304;29;20529;-63
2023/06/19 13:24:55;;;;;;;5.65;2.97;;;;;;;;;;4956218;29;20035;-61
2023/06/19 13:27:21;;;;;;;5.20;3.00;;;;;;;;;;4956469;29;20030;-62
2023/06/19 13:29:46;;;;;;;6.13;3.28;;;;;;;;;;4956224;29;20027;-63
2023/06/19 13:32:11;;;;;;;6.78;2.88;;;;;;;;;;4953088;29;20509;-62
2023/06/19 13:34:36;;;;;;;5.32;2.75;;;;;;;;;;4953986;29;20037;-63
2023/06/19 13:37:03;;;;;;;5.50;3.10;;;;;;;;;;4944191;29;20027;-62
2023/06/19 13:39:29;;;;;;;5.53;2.78;;;;;;;;;;4936891;29;20030;-62
2023/06/19 13:41:54;;;;;;;4.63;2.80;;;;;;;;;;4948791;28;20023;-62
2023/06/19 13:44:19;;;;;;;6.93;3.00;;;;;;;;;;4946877;29;20442;-62
2023/06/19 13:46:45;;;;;;;6.13;2.80;;;;;;;;;;4955688;29;20078;-61
2023/06/19 13:49:10;;;;;;;7.13;3.28;;;;;;;;;;4955712;29;20023;-61
2023/06/19 13:51:36;;;;;;;5.75;3.30;;;;;;;;;;4952930;29;20058;-62
2023/06/19 13:54:04;;;;;;;6.72;3.15;;;;;;;;;;4956051;29;20359;-62
2023/06/19 13:56:29;;;;;;;4.20;2.80;;;;;;;;;;4953735;28;20019;-62
2023/06/19 13:58:54;;;;;;;5.40;2.85;;;;;;;;;;4956078;29;20054;-62
2023/06/19 14:01:20;;;;;;;7.32;3.00;;;;;;;;;;4954128;29;20023;-62
2023/06/19 14:03:45;;;;;;;5.25;2.75;;;;;;;;;;4955507;29;20047;-63
2023/06/19 14:06:12;;;;;;;7.10;3.25;;;;;;;;;;4954878;29;20023;-61
2023/06/19 14:08:39;;;;;;;6.03;3.20;;;;;;;;;;4955478;29;20106;-62
2023/06/19 14:11:04;;;;;;;4.88;3.13;;;;;;;;;;4953528;29;20030;-62
2023/06/19 14:13:30;;;;;;;5.50;3.15;;;;;;;;;;4955579;29;20382;-62
2023/06/19 14:15:55;;;;;;;6.40;2.92;;;;;;;;;;4955640;29;20078;-62
2023/06/19 14:18:21;;;;;;;5.40;3.00;;;;;;;;;;4955658;28;20023;-62
2023/06/19 14:20:46;;;;;;;5.15;3.47;;;;;;;;;;4961751;28;20110;-61
2023/06/19 14:23:11;;;;;;;5.00;3.03;;;;;;;;;;4955539;29;20080;-62
2023/06/19 14:25:36;;;;;;;6.85;3.58;;;;;;;;;;4955673;29;20380;-62
2023/06/19 14:28:04;;;;;;;7.70;3.60;;;;;;;;;;4954210;29;20023;-62
2023/06/19 14:30:31;;;;;;;10.05;3.55;;;;;;;;;;4954841;29;20401;-63
2023/06/19 14:32:56;;;;;;;6.00;3.17;;;;;;;;;;4954671;29;20031;-61
2023/06/19 14:35:21;;;;;;;5.65;3.13;;;;;;;;;;4953169;29;20031;-62
2023/06/19 14:37:46;;;;;;;6.28;2.70;;;;;;;;;;4953083;29;20110;-62